Time;durP1;ratioP1;P1;durP2;ratioP2;P2;SDS_P1;SDS_P2;PMS_P1;PMS_P2;Temp;Humidity;BMP_temperature;BMP_pressure;BME280_temperature;BME280_humidity;BME280_pressure;Samples;Min_cycle;Max_cycle;Signal;HPM_P1;HPM_P2
2023/01/18 00:01:43;;;;;;;0.83;0.43;;;;;;;;;;5049835;28;20234;-76
2023/01/18 00:04:12;;;;;;;0.57;0.57;;;;;;;;;;5049396;28;20633;-77
2023/01/18 00:06:39;;;;;;;1.23;0.83;;;;;;;;;;5057747;28;20209;-76
2023/01/18 00:09:06;;;;;;;1.43;0.73;;;;;;;;;;5070781;28;20210;-76
2023/01/18 00:11:33;;;;;;;1.20;0.60;;;;;;;;;;5053660;28;20257;-77
2023/01/18 00:14:01;;;;;;;0.27;0.27;;;;;;;;;;5050146;28;20215;-77
2023/01/18 00:16:29;;;;;;;0.80;0.80;;;;;;;;;;5066380;28;20213;-77
2023/01/18 00:18:57;;;;;;;0.10;0.10;;;;;;;;;;5070541;28;20549;-77
2023/01/18 00:21:26;;;;;;;0.77;0.77;;;;;;;;;;5053882;28;20229;-77
2023/01/18 00:23:53;;;;;;;1.27;0.83;;;;;;;;;;5049632;28;20380;-77
2023/01/18 00:26:20;;;;;;;1.80;1.00;;;;;;;;;;5056302;28;20217;-77
2023/01/18 00:28:47;;;;;;;0.23;0.23;;;;;;;;;;5054347;28;20321;-77
2023/01/18 00:31:15;;;;;;;0.37;0.33;;;;;;;;;;5049412;28;20205;-77
2023/01/18 00:33:43;;;;;;;1.13;1.13;;;;;;;;;;5050510;28;20209;-76
2023/01/18 00:36:10;;;;;;;0.93;0.93;;;;;;;;;;5047831;28;20216;-76
2023/01/18 00:38:38;;;;;;;0.67;0.50;;;;;;;;;;5049149;28;20302;-77
2023/01/18 00:41:05;;;;;;;1.00;0.97;;;;;;;;;;5067605;28;20222;-76
2023/01/18 00:43:37;;;;;;;1.07;1.07;;;;;;;;;;5058030;28;20211;-75
2023/01/18 00:46:05;;;;;;;1.40;1.40;;;;;;;;;;5048819;28;20298;-77
2023/01/18 00:48:32;;;;;;;1.30;1.20;;;;;;;;;;5058584;28;20214;-76
2023/01/18 00:50:59;;;;;;;0.87;0.87;;;;;;;;;;5065595;28;20217;-77
2023/01/18 00:53:26;;;;;;;1.73;1.20;;;;;;;;;;5059056;28;20646;-76
2023/01/18 00:55:54;;;;;;;0.77;0.77;;;;;;;;;;5049254;28;20236;-76
2023/01/18 00:58:21;;;;;;;0.70;0.70;;;;;;;;;;5061408;28;20260;-76
2023/01/18 01:00:48;;;;;;;2.67;0.70;;;;;;;;;;5067725;28;20241;-77
2023/01/18 01:03:15;;;;;;;2.97;0.90;;;;;;;;;;5067883;28;20206;-76
2023/01/18 01:08:27;;;;;;;0.57;0.57;;;;;;;;;;5067770;28;20225;-77
2023/01/18 01:11:06;;;;;;;0.60;0.60;;;;;;;;;;5054340;28;20215;-77
2023/01/18 01:27:18;;;;;;;0.70;0.70;;;;;;;;;;5048345;28;20201;-77
2023/01/18 01:29:45;;;;;;;3.53;1.17;;;;;;;;;;5048117;28;20215;-77
2023/01/18 01:32:12;;;;;;;1.20;1.07;;;;;;;;;;5048482;28;20210;-77
2023/01/18 01:34:39;;;;;;;0.90;0.90;;;;;;;;;;5048096;28;20327;-77
2023/01/18 01:37:06;;;;;;;0.93;0.83;;;;;;;;;;5057525;28;20215;-77
2023/01/18 01:39:33;;;;;;;0.87;0.87;;;;;;;;;;5060209;28;20218;-78
2023/01/18 01:42:00;;;;;;;0.60;0.60;;;;;;;;;;5058470;28;20692;-77
2023/01/18 01:44:45;;;;;;;1.30;0.87;;;;;;;;;;5049855;28;20323;-77
2023/01/18 01:47:15;;;;;;;0.60;0.60;;;;;;;;;;5066869;28;20233;-77
2023/01/18 01:49:43;;;;;;;1.30;0.70;;;;;;;;;;5068027;28;20212;-78
2023/01/18 01:52:12;;;;;;;0.90;0.70;;;;;;;;;;5057787;28;20223;-77
2023/01/18 01:54:40;;;;;;;0.73;0.73;;;;;;;;;;5048839;28;20275;-77
2023/01/18 01:57:10;;;;;;;3.63;0.83;;;;;;;;;;5049980;28;20239;-77
2023/01/18 01:59:39;;;;;;;0.67;0.67;;;;;;;;;;5051947;28;20218;-77
2023/01/18 02:02:11;;;;;;;2.03;0.70;;;;;;;;;;5058178;28;20233;-78
2023/01/18 02:04:45;;;;;;;1.27;0.80;;;;;;;;;;5048651;28;20681;-77
2023/01/18 02:07:12;;;;;;;0.70;0.70;;;;;;;;;;5057067;28;20307;-77
2023/01/18 02:09:39;;;;;;;1.00;1.00;;;;;;;;;;5049642;28;20221;-77
2023/01/18 02:12:06;;;;;;;0.80;0.80;;;;;;;;;;5048768;28;20238;-77
2023/01/18 02:14:34;;;;;;;0.70;0.70;;;;;;;;;;5050316;28;20563;-77
2023/01/18 02:20:08;;;;;;;0.70;0.70;;;;;;;;;;5055918;28;20214;-77
2023/01/18 02:22:43;;;;;;;0.90;0.90;;;;;;;;;;5054685;28;20227;-77
2023/01/18 02:25:27;;;;;;;1.60;0.90;;;;;;;;;;5057351;28;20233;-78
2023/01/18 02:28:04;;;;;;;1.17;0.87;;;;;;;;;;5066632;28;20676;-77
2023/01/18 02:30:32;;;;;;;1.23;1.23;;;;;;;;;;5065876;28;20217;-76
2023/01/18 02:33:04;;;;;;;2.67;1.53;;;;;;;;;;5054664;28;20219;-76
2023/01/18 02:35:36;;;;;;;1.30;1.07;;;;;;;;;;5052851;28;20206;-77
2023/01/18 02:38:08;;;;;;;2.97;0.60;;;;;;;;;;5048464;28;20226;-77
2023/01/18 02:40:40;;;;;;;1.17;1.07;;;;;;;;;;5060808;28;20300;-77
2023/01/18 02:48:41;;;;;;;4.90;1.50;;;;;;;;;;5052513;28;20658;-77
2023/01/18 02:51:09;;;;;;;6.50;1.00;;;;;;;;;;5058698;28;20669;-77
2023/01/18 02:53:38;;;;;;;1.43;1.33;;;;;;;;;;5055401;28;20678;-76
2023/01/18 02:56:07;;;;;;;0.93;0.93;;;;;;;;;;5054774;28;20265;-77
2023/01/18 02:58:39;;;;;;;1.90;0.73;;;;;;;;;;5064689;28;20218;-77
2023/01/18 03:01:09;;;;;;;1.07;1.07;;;;;;;;;;5055158;28;20207;-77
2023/01/18 03:03:36;;;;;;;0.73;0.67;;;;;;;;;;5051906;28;20293;-77
2023/01/18 03:06:06;;;;;;;2.97;1.20;;;;;;;;;;5058641;28;20261;-77
2023/01/18 03:08:36;;;;;;;1.10;1.10;;;;;;;;;;5068193;28;20307;-77
2023/01/18 03:11:04;;;;;;;1.23;0.97;;;;;;;;;;5065536;28;20209;-77
2023/01/18 03:13:41;;;;;;;0.70;0.70;;;;;;;;;;5062793;28;20211;-76
2023/01/18 03:16:10;;;;;;;1.10;1.00;;;;;;;;;;5069140;28;20210;-77
2023/01/18 03:18:59;;;;;;;1.33;1.17;;;;;;;;;;5058929;28;20677;-77
2023/01/18 03:21:28;;;;;;;1.57;1.00;;;;;;;;;;5062650;28;20371;-77
2023/01/18 03:23:55;;;;;;;1.57;1.47;;;;;;;;;;5057453;28;20289;-77
2023/01/18 03:26:23;;;;;;;1.23;1.00;;;;;;;;;;5051370;28;20206;-76
2023/01/18 03:34:25;;;;;;;2.87;1.20;;;;;;;;;;5064787;28;20202;-76
2023/01/18 03:36:54;;;;;;;4.67;1.13;;;;;;;;;;5059458;28;20218;-77
2023/01/18 03:39:24;;;;;;;0.83;0.83;;;;;;;;;;5066760;28;20213;-77
2023/01/18 03:41:53;;;;;;;2.13;1.70;;;;;;;;;;5051044;28;20254;-77
2023/01/18 03:44:24;;;;;;;1.03;1.03;;;;;;;;;;5053385;28;20214;-76
2023/01/18 03:46:51;;;;;;;3.40;1.80;;;;;;;;;;5054661;28;20207;-77
2023/01/18 03:49:19;;;;;;;3.07;1.20;;;;;;;;;;5059200;28;20210;-76
2023/01/18 03:51:50;;;;;;;1.03;0.93;;;;;;;;;;5051082;28;20211;-77
2023/01/18 03:54:20;;;;;;;2.87;1.10;;;;;;;;;;5051931;28;20203;-76
2023/01/18 03:56:50;;;;;;;1.20;1.20;;;;;;;;;;5064752;28;20238;-77
2023/01/18 03:59:17;;;;;;;0.83;0.83;;;;;;;;;;5067452;28;20213;-77
2023/01/18 04:01:46;;;;;;;1.53;1.00;;;;;;;;;;5054226;28;20230;-77
2023/01/18 04:04:14;;;;;;;5.33;1.10;;;;;;;;;;5068849;28;20588;-77
2023/01/18 04:06:41;;;;;;;3.13;1.50;;;;;;;;;;5065385;28;20215;-77
2023/01/18 04:09:08;;;;;;;0.97;0.80;;;;;;;;;;5066051;28;20210;-76
2023/01/18 04:11:35;;;;;;;1.00;1.00;;;;;;;;;;5051167;28;20256;-77
2023/01/18 04:14:02;;;;;;;2.70;1.00;;;;;;;;;;5069477;28;20260;-77
2023/01/18 04:16:29;;;;;;;0.97;0.87;;;;;;;;;;5059875;28;20283;-77
2023/01/18 04:18:57;;;;;;;1.20;1.10;;;;;;;;;;5060926;28;20269;-77
2023/01/18 04:21:24;;;;;;;3.37;1.00;;;;;;;;;;5050205;28;20280;-76
2023/01/18 04:23:51;;;;;;;9.03;2.50;;;;;;;;;;5069007;28;20209;-76
2023/01/18 04:26:18;;;;;;;13.63;4.20;;;;;;;;;;5063233;28;20222;-77
2023/01/18 04:28:45;;;;;;;7.80;2.50;;;;;;;;;;5057264;28;20256;-77
2023/01/18 04:31:12;;;;;;;9.00;2.37;;;;;;;;;;5048436;28;20636;-76
2023/01/18 04:33:39;;;;;;;5.30;1.60;;;;;;;;;;5048891;28;20203;-77
2023/01/18 04:36:08;;;;;;;6.80;1.97;;;;;;;;;;5058215;28;20617;-77
2023/01/18 04:38:35;;;;;;;1.37;1.27;;;;;;;;;;5052249;28;20633;-77
2023/01/18 04:41:03;;;;;;;3.60;1.30;;;;;;;;;;5049728;28;20242;-76
2023/01/18 04:43:30;;;;;;;1.17;1.03;;;;;;;;;;5055326;28;20255;-76
2023/01/18 04:45:57;;;;;;;1.20;1.10;;;;;;;;;;5060292;28;20207;-76
2023/01/18 04:48:25;;;;;;;11.10;1.20;;;;;;;;;;5048631;28;20275;-76
2023/01/18 04:50:52;;;;;;;0.70;0.70;;;;;;;;;;5060717;28;20218;-76
2023/01/18 04:53:21;;;;;;;9.63;1.20;;;;;;;;;;5049184;28;20261;-76
2023/01/18 04:55:48;;;;;;;3.17;1.43;;;;;;;;;;5048049;28;20231;-76
2023/01/18 04:58:15;;;;;;;2.73;1.13;;;;;;;;;;5053634;28;20260;-77
2023/01/18 05:00:42;;;;;;;1.63;1.23;;;;;;;;;;5056294;28;20235;-76
2023/01/18 05:03:10;;;;;;;1.77;1.10;;;;;;;;;;5061847;28;20231;-76
2023/01/18 05:05:37;;;;;;;1.37;1.17;;;;;;;;;;5066189;28;20209;-76
2023/01/18 05:08:04;;;;;;;0.83;0.83;;;;;;;;;;5060258;28;20205;-77
2023/01/18 05:10:33;;;;;;;2.20;1.10;;;;;;;;;;5063342;28;20241;-76
2023/01/18 05:13:00;;;;;;;3.40;0.50;;;;;;;;;;5067510;28;20317;-77
2023/01/18 05:15:27;;;;;;;0.60;0.60;;;;;;;;;;5064130;28;20210;-77
2023/01/18 05:17:54;;;;;;;4.90;0.77;;;;;;;;;;5053702;28;20264;-77
2023/01/18 05:20:21;;;;;;;1.17;0.50;;;;;;;;;;5048750;28;20268;-77
2023/01/18 05:22:48;;;;;;;1.13;0.77;;;;;;;;;;5054587;28;20232;-77
2023/01/18 05:25:15;;;;;;;1.90;0.80;;;;;;;;;;5064249;28;20817;-76
2023/01/18 05:27:43;;;;;;;1.30;1.20;;;;;;;;;;5049749;28;20222;-76
2023/01/18 05:30:11;;;;;;;0.97;0.97;;;;;;;;;;5065373;28;20220;-77
2023/01/18 05:32:38;;;;;;;3.40;0.80;;;;;;;;;;5055862;28;20209;-76
2023/01/18 05:35:05;;;;;;;0.90;0.90;;;;;;;;;;5050260;28;20265;-77
2023/01/18 05:37:32;;;;;;;1.30;1.30;;;;;;;;;;5049170;28;20658;-77
2023/01/18 05:39:59;;;;;;;1.53;1.27;;;;;;;;;;5067310;28;20809;-77
2023/01/18 05:42:26;;;;;;;4.97;1.50;;;;;;;;;;5065907;28;20229;-77
2023/01/18 05:44:55;;;;;;;1.13;1.03;;;;;;;;;;5051657;28;20616;-76
2023/01/18 05:47:22;;;;;;;1.40;1.30;;;;;;;;;;5065109;28;20301;-76
2023/01/18 05:49:49;;;;;;;1.00;1.00;;;;;;;;;;5061277;28;20625;-76
2023/01/18 05:52:16;;;;;;;1.50;1.40;;;;;;;;;;5066838;28;20218;-76
2023/01/18 05:54:43;;;;;;;1.20;1.10;;;;;;;;;;5062588;28;20559;-76
2023/01/18 05:57:10;;;;;;;3.10;1.60;;;;;;;;;;5049416;28;20231;-76
2023/01/18 05:59:37;;;;;;;0.80;0.80;;;;;;;;;;5050619;28;20294;-76
2023/01/18 06:02:05;;;;;;;0.90;0.90;;;;;;;;;;5044362;28;20837;-76
2023/01/18 06:04:32;;;;;;;3.77;1.33;;;;;;;;;;5047402;28;20214;-77
2023/01/18 06:07:00;;;;;;;2.50;1.10;;;;;;;;;;5062213;28;20626;-76
2023/01/18 06:09:28;;;;;;;0.90;0.90;;;;;;;;;;5056791;28;20214;-76
2023/01/18 06:11:56;;;;;;;1.70;1.63;;;;;;;;;;5050444;28;20253;-76
2023/01/18 06:14:23;;;;;;;2.33;1.50;;;;;;;;;;5049750;28;20209;-76
2023/01/18 06:16:50;;;;;;;1.50;1.40;;;;;;;;;;5048647;28;20213;-76
2023/01/18 06:19:19;;;;;;;1.60;1.27;;;;;;;;;;5049749;28;20666;-77
2023/01/18 06:21:46;;;;;;;1.00;1.00;;;;;;;;;;5059475;28;20214;-77
2023/01/18 06:24:13;;;;;;;2.13;1.00;;;;;;;;;;5055970;28;20698;-76
2023/01/18 06:26:40;;;;;;;0.83;0.83;;;;;;;;;;5054608;28;20270;-77
2023/01/18 06:29:07;;;;;;;0.87;0.87;;;;;;;;;;5062577;28;20232;-76
2023/01/18 06:31:35;;;;;;;3.20;1.93;;;;;;;;;;5061810;28;20304;-76
2023/01/18 06:34:08;;;;;;;1.60;1.40;;;;;;;;;;5060715;28;20210;-76
2023/01/18 06:36:36;;;;;;;2.07;1.37;;;;;;;;;;5057379;28;20205;-76
2023/01/18 06:39:03;;;;;;;3.27;1.53;;;;;;;;;;5066311;28;20265;-76
2023/01/18 06:41:30;;;;;;;3.53;1.97;;;;;;;;;;5062909;28;20307;-76
2023/01/18 06:43:57;;;;;;;1.57;1.47;;;;;;;;;;5054004;28;20652;-76
2023/01/18 06:46:24;;;;;;;1.23;1.00;;;;;;;;;;5071925;28;20214;-76
2023/01/18 06:48:51;;;;;;;1.67;1.00;;;;;;;;;;5059212;28;20619;-76
2023/01/18 06:51:19;;;;;;;1.77;0.90;;;;;;;;;;5062293;28;20218;-76
2023/01/18 06:53:47;;;;;;;4.60;1.03;;;;;;;;;;5068061;28;20296;-76
2023/01/18 06:56:14;;;;;;;1.37;1.27;;;;;;;;;;5068953;28;20230;-76
2023/01/18 06:58:41;;;;;;;0.83;0.80;;;;;;;;;;5069693;28;20290;-76
2023/01/18 07:01:08;;;;;;;1.50;1.20;;;;;;;;;;5071544;28;20210;-75
2023/01/18 07:03:35;;;;;;;1.37;1.27;;;;;;;;;;5057554;28;20300;-77
2023/01/18 07:06:05;;;;;;;1.17;1.13;;;;;;;;;;5051132;28;20218;-76
2023/01/18 07:08:33;;;;;;;1.53;1.43;;;;;;;;;;5063104;28;20627;-77
2023/01/18 07:11:04;;;;;;;1.20;1.20;;;;;;;;;;5071050;28;20213;-77
2023/01/18 07:13:31;;;;;;;3.10;1.70;;;;;;;;;;5070730;28;20199;-78
2023/01/18 07:16:00;;;;;;;1.93;1.20;;;;;;;;;;5071134;28;20218;-77
2023/01/18 07:18:28;;;;;;;2.87;1.00;;;;;;;;;;5069613;28;20202;-78
2023/01/18 07:20:59;;;;;;;2.73;2.00;;;;;;;;;;5071056;28;20210;-76
2023/01/18 07:23:26;;;;;;;1.67;1.30;;;;;;;;;;5061198;28;20711;-77
2023/01/18 07:26:02;;;;;;;3.37;1.00;;;;;;;;;;5066931;28;20822;-76
2023/01/18 07:28:29;;;;;;;2.20;1.13;;;;;;;;;;5068810;28;20201;-76
2023/01/18 07:30:56;;;;;;;2.13;1.20;;;;;;;;;;5050384;28;20202;-75
2023/01/18 07:33:23;;;;;;;0.93;0.87;;;;;;;;;;5068595;28;20273;-75
2023/01/18 07:35:52;;;;;;;3.37;1.10;;;;;;;;;;5067181;28;20262;-76
2023/01/18 07:38:19;;;;;;;4.17;1.30;;;;;;;;;;5070542;28;20576;-76
2023/01/18 07:40:46;;;;;;;0.93;0.93;;;;;;;;;;5070758;28;20284;-74
2023/01/18 07:43:15;;;;;;;1.53;1.00;;;;;;;;;;5070809;28;20293;-75
2023/01/18 07:45:42;;;;;;;2.83;2.27;;;;;;;;;;5070206;28;20213;-74
2023/01/18 07:48:09;;;;;;;0.73;0.73;;;;;;;;;;5057904;28;20672;-77
2023/01/18 07:50:37;;;;;;;0.97;0.80;;;;;;;;;;5050202;28;20206;-74
2023/01/18 07:53:07;;;;;;;1.13;1.03;;;;;;;;;;5052570;28;20216;-77
2023/01/18 07:55:37;;;;;;;1.37;1.13;;;;;;;;;;5070781;28;20583;-74
2023/01/18 07:58:05;;;;;;;1.77;1.63;;;;;;;;;;5072188;28;20299;-74
2023/01/18 08:00:34;;;;;;;0.93;0.87;;;;;;;;;;5060753;28;20241;-76
2023/01/18 08:03:01;;;;;;;2.20;1.20;;;;;;;;;;5067506;28;20237;-74
2023/01/18 08:05:28;;;;;;;0.97;0.97;;;;;;;;;;5067676;28;20214;-75
2023/01/18 08:07:55;;;;;;;1.30;1.03;;;;;;;;;;5052278;28;20210;-75
2023/01/18 08:10:25;;;;;;;0.80;0.80;;;;;;;;;;5049984;28;20215;-75
2023/01/18 08:12:52;;;;;;;2.07;0.87;;;;;;;;;;5063416;28;20241;-72
2023/01/18 08:15:19;;;;;;;5.33;1.00;;;;;;;;;;5069026;28;20206;-75
2023/01/18 08:17:49;;;;;;;1.80;0.93;;;;;;;;;;5057824;28;20256;-75
2023/01/18 08:20:17;;;;;;;1.00;0.90;;;;;;;;;;5066112;28;20740;-75
2023/01/18 08:22:44;;;;;;;5.63;1.73;;;;;;;;;;5052994;28;20214;-75
2023/01/18 08:25:11;;;;;;;7.93;1.67;;;;;;;;;;5058349;28;20211;-75
2023/01/18 08:27:38;;;;;;;1.80;1.43;;;;;;;;;;5051277;28;20206;-75
2023/01/18 08:30:06;;;;;;;1.37;1.27;;;;;;;;;;5068191;28;20293;-70
2023/01/18 08:32:33;;;;;;;0.87;0.87;;;;;;;;;;5067732;28;20216;-77
2023/01/18 08:38:03;;;;;;;1.50;1.07;;;;;;;;;;5030241;28;20201;-74
2023/01/18 08:40:30;;;;;;;1.47;1.00;;;;;;;;;;5048650;28;20217;-74
2023/01/18 08:42:58;;;;;;;2.53;1.07;;;;;;;;;;5048209;28;20259;-74
2023/01/18 08:45:25;;;;;;;1.70;1.07;;;;;;;;;;5048452;28;20222;-74
2023/01/18 08:47:56;;;;;;;2.77;0.70;;;;;;;;;;5048486;28;20222;-74
2023/01/18 08:50:23;;;;;;;0.87;0.80;;;;;;;;;;5056566;28;20300;-74
2023/01/18 08:52:51;;;;;;;1.33;1.23;;;;;;;;;;5068511;28;20218;-75
2023/01/18 08:55:20;;;;;;;2.20;0.87;;;;;;;;;;5067990;28;20280;-74
2023/01/18 08:57:47;;;;;;;3.47;1.07;;;;;;;;;;5067508;28;20688;-75
2023/01/18 09:00:15;;;;;;;1.83;1.03;;;;;;;;;;5068089;28;20218;-75
2023/01/18 09:02:42;;;;;;;1.53;1.20;;;;;;;;;;5068261;28;20214;-75
2023/01/18 09:05:09;;;;;;;1.33;1.00;;;;;;;;;;5068177;28;20319;-75
2023/01/18 09:07:36;;;;;;;3.13;1.17;;;;;;;;;;5067985;28;20210;-75
2023/01/18 09:10:04;;;;;;;3.07;1.10;;;;;;;;;;5067132;28;20257;-76
2023/01/18 09:12:33;;;;;;;1.27;0.70;;;;;;;;;;5067791;28;20337;-75
2023/01/18 09:15:00;;;;;;;0.80;0.80;;;;;;;;;;5068107;28;20211;-75
2023/01/18 09:17:27;;;;;;;0.73;0.73;;;;;;;;;;5067868;28;20213;-75
2023/01/18 09:19:54;;;;;;;1.13;1.03;;;;;;;;;;5067666;28;20713;-75
2023/01/18 09:22:22;;;;;;;3.73;1.13;;;;;;;;;;5050658;28;20207;-76
2023/01/18 09:24:50;;;;;;;7.00;1.97;;;;;;;;;;5047763;28;20281;-75
2023/01/18 09:27:17;;;;;;;5.77;1.03;;;;;;;;;;5047519;28;20322;-75
2023/01/18 09:29:50;;;;;;;1.20;0.90;;;;;;;;;;5047700;28;20265;-75
2023/01/18 09:32:18;;;;;;;0.80;0.80;;;;;;;;;;5047712;28;20222;-75
2023/01/18 09:34:49;;;;;;;3.70;1.70;;;;;;;;;;5047651;28;20645;-76
2023/01/18 09:37:16;;;;;;;0.70;0.70;;;;;;;;;;5047534;28;20707;-76
2023/01/18 09:39:43;;;;;;;1.50;1.30;;;;;;;;;;5047652;28;20310;-76
2023/01/18 09:42:17;;;;;;;0.93;0.90;;;;;;;;;;5047004;28;20214;-76
2023/01/18 09:44:47;;;;;;;8.27;1.10;;;;;;;;;;5047803;28;20689;-75
2023/01/18 09:47:17;;;;;;;0.83;0.83;;;;;;;;;;5047588;28;20253;-75
2023/01/18 09:49:51;;;;;;;1.10;1.10;;;;;;;;;;5047568;28;20219;-75
2023/01/18 09:52:24;;;;;;;0.93;0.80;;;;;;;;;;5047632;28;20242;-75
2023/01/18 09:54:54;;;;;;;3.93;1.40;;;;;;;;;;5047632;28;20661;-75
2023/01/18 09:57:30;;;;;;;0.97;0.97;;;;;;;;;;5047667;28;20304;-75
2023/01/18 09:59:59;;;;;;;2.67;0.90;;;;;;;;;;5048125;28;20199;-75
2023/01/18 10:02:31;;;;;;;0.40;0.40;;;;;;;;;;5048258;28;20219;-75
2023/01/18 10:05:00;;;;;;;1.33;1.10;;;;;;;;;;5051993;28;20710;-75
2023/01/18 10:07:29;;;;;;;2.03;0.97;;;;;;;;;;5051967;28;20219;-75
2023/01/18 10:09:57;;;;;;;2.17;0.90;;;;;;;;;;5052115;28;20208;-75
2023/01/18 10:12:30;;;;;;;8.50;0.93;;;;;;;;;;5051798;28;20239;-75
2023/01/18 10:15:02;;;;;;;1.00;1.00;;;;;;;;;;5051364;28;20670;-75
2023/01/18 10:17:34;;;;;;;2.20;1.10;;;;;;;;;;5051908;28;20235;-75
2023/01/18 10:20:03;;;;;;;0.50;0.50;;;;;;;;;;5051858;28;20211;-75
2023/01/18 10:22:32;;;;;;;1.87;1.00;;;;;;;;;;5052189;28;20212;-75
2023/01/18 10:25:03;;;;;;;0.70;0.70;;;;;;;;;;5051868;28;20263;-74
2023/01/18 10:27:47;;;;;;;6.03;1.60;;;;;;;;;;5051825;28;20216;-73
2023/01/18 10:30:33;;;;;;;2.70;1.17;;;;;;;;;;5050872;28;20212;-73
2023/01/18 10:33:02;;;;;;;1.70;1.00;;;;;;;;;;5051783;28;20269;-73
2023/01/18 10:35:31;;;;;;;0.80;0.80;;;;;;;;;;5051753;28;20203;-74
2023/01/18 10:38:01;;;;;;;1.43;1.00;;;;;;;;;;5055402;28;20256;-74
2023/01/18 10:40:28;;;;;;;1.73;1.50;;;;;;;;;;5062561;28;20215;-74
2023/01/18 10:42:58;;;;;;;4.90;1.37;;;;;;;;;;5071795;28;20217;-79
2023/01/18 10:45:26;;;;;;;3.70;1.20;;;;;;;;;;5063116;28;20226;-75
2023/01/18 10:47:55;;;;;;;1.13;1.07;;;;;;;;;;5063082;28;20673;-76
2023/01/18 10:50:24;;;;;;;5.03;0.90;;;;;;;;;;5051969;28;20212;-84
2023/01/18 10:52:51;;;;;;;4.10;1.17;;;;;;;;;;5051827;28;20302;-86
2023/01/18 10:55:19;;;;;;;2.97;0.70;;;;;;;;;;5050852;28;20208;-75
2023/01/18 10:57:47;;;;;;;1.90;1.03;;;;;;;;;;5066533;28;20203;-72
2023/01/18 11:00:21;;;;;;;1.70;1.23;;;;;;;;;;5062615;28;20294;-75
2023/01/18 11:02:49;;;;;;;1.00;1.00;;;;;;;;;;5051094;28;20362;-73
2023/01/18 11:05:21;;;;;;;1.97;0.90;;;;;;;;;;5051227;28;20314;-75
2023/01/18 11:07:48;;;;;;;1.60;0.97;;;;;;;;;;5051025;28;20243;-72
2023/01/18 11:10:33;;;;;;;1.50;0.90;;;;;;;;;;5065905;28;20216;-73
2023/01/18 11:13:00;;;;;;;5.50;1.00;;;;;;;;;;5069744;28;20605;-74
2023/01/18 11:15:29;;;;;;;3.53;1.00;;;;;;;;;;5051099;28;20199;-73
2023/01/18 11:18:00;;;;;;;1.50;1.10;;;;;;;;;;5063133;28;20201;-73
2023/01/18 11:20:33;;;;;;;1.47;1.13;;;;;;;;;;5070554;28;20738;-74
2023/01/18 11:23:01;;;;;;;0.87;0.87;;;;;;;;;;5050987;28;20200;-74
2023/01/18 11:25:36;;;;;;;2.13;0.93;;;;;;;;;;5064894;28;20716;-74
2023/01/18 11:28:06;;;;;;;1.03;1.03;;;;;;;;;;5069705;28;20222;-68
2023/01/18 11:30:33;;;;;;;3.63;1.10;;;;;;;;;;5050703;28;20679;-63
2023/01/18 11:33:00;;;;;;;1.43;1.03;;;;;;;;;;5068037;28;20617;-67
2023/01/18 11:35:30;;;;;;;1.47;1.40;;;;;;;;;;5051476;28;20669;-76
2023/01/18 11:38:03;;;;;;;2.63;1.47;;;;;;;;;;5051580;28;20281;-70
2023/01/18 11:40:31;;;;;;;2.60;1.33;;;;;;;;;;5050081;28;20219;-70
2023/01/18 11:43:00;;;;;;;10.07;1.43;;;;;;;;;;5055566;28;20210;-74
2023/01/18 11:45:30;;;;;;;3.00;0.90;;;;;;;;;;5050578;28;20753;-71
2023/01/18 11:48:02;;;;;;;4.90;1.77;;;;;;;;;;5056463;28;20256;-68
2023/01/18 11:50:36;;;;;;;1.70;1.60;;;;;;;;;;5070779;28;20203;-69
2023/01/18 11:53:11;;;;;;;1.60;1.50;;;;;;;;;;5069974;28;20215;-67
2023/01/18 11:55:42;;;;;;;1.23;1.20;;;;;;;;;;5050175;28;20238;-69
2023/01/18 11:58:12;;;;;;;1.50;1.37;;;;;;;;;;5059392;28;20207;-70
2023/01/18 12:00:43;;;;;;;2.20;2.10;;;;;;;;;;5050467;28;20596;-71
2023/01/18 12:03:25;;;;;;;6.03;2.58;;;;;;;;;;5053570;28;20501;-69
2023/01/18 12:05:55;;;;;;;2.10;1.63;;;;;;;;;;5065607;28;20234;-71
2023/01/18 12:08:37;;;;;;;1.47;1.47;;;;;;;;;;5059902;28;20215;-70
2023/01/18 12:11:09;;;;;;;4.80;2.00;;;;;;;;;;5064732;28;20211;-69
2023/01/18 12:13:37;;;;;;;9.43;3.77;;;;;;;;;;5070345;28;20213;-70
2023/01/18 12:16:08;;;;;;;3.17;2.10;;;;;;;;;;5069263;28;20203;-70
2023/01/18 12:18:54;;;;;;;8.40;1.70;;;;;;;;;;5050805;28;20211;-69
2023/01/18 12:21:24;;;;;;;4.10;1.63;;;;;;;;;;5024109;28;20202;-72
2023/01/18 12:24:11;;;;;;;5.90;1.87;;;;;;;;;;5051734;28;20207;-71
2023/01/18 12:26:46;;;;;;;2.07;1.60;;;;;;;;;;5053797;28;20260;-73
2023/01/18 12:29:23;;;;;;;7.00;2.13;;;;;;;;;;5056543;28;20688;-72
2023/01/18 12:31:56;;;;;;;1.60;1.50;;;;;;;;;;5050075;28;20333;-73
2023/01/18 12:34:24;;;;;;;2.10;1.70;;;;;;;;;;5054082;28;20265;-70
2023/01/18 12:36:57;;;;;;;6.80;1.73;;;;;;;;;;5053549;28;20235;-72
2023/01/18 12:39:35;;;;;;;4.60;1.83;;;;;;;;;;5051870;28;20247;-71
2023/01/18 12:42:04;;;;;;;6.53;2.30;;;;;;;;;;5053951;28;20249;-68
2023/01/18 12:44:42;;;;;;;3.17;2.00;;;;;;;;;;5050223;28;20218;-72
2023/01/18 12:47:15;;;;;;;10.80;2.10;;;;;;;;;;5050920;28;20301;-72
2023/01/18 12:49:44;;;;;;;2.80;2.27;;;;;;;;;;5049743;28;20666;-72
2023/01/18 12:52:13;;;;;;;2.20;2.00;;;;;;;;;;5055875;28;20296;-70
2023/01/18 12:54:42;;;;;;;7.40;2.43;;;;;;;;;;5063120;28;20312;-71
2023/01/18 12:57:12;;;;;;;2.17;1.80;;;;;;;;;;5050353;28;20308;-70
2023/01/18 12:59:41;;;;;;;4.13;1.83;;;;;;;;;;5053519;28;20720;-71
2023/01/18 13:02:21;;;;;;;1.73;1.03;;;;;;;;;;5057893;28;20221;-71
2023/01/18 13:04:52;;;;;;;4.83;2.80;;;;;;;;;;5051663;28;20236;-71
2023/01/18 13:07:22;;;;;;;2.40;1.77;;;;;;;;;;5066965;28;20620;-71
2023/01/18 13:09:51;;;;;;;2.50;2.13;;;;;;;;;;5054121;28;20222;-71
2023/01/18 13:12:19;;;;;;;2.73;1.73;;;;;;;;;;5057751;28;20296;-72
2023/01/18 13:14:49;;;;;;;3.43;2.43;;;;;;;;;;5049485;28;20310;-71
2023/01/18 13:17:19;;;;;;;3.10;1.70;;;;;;;;;;5065492;28;20225;-72
2023/01/18 13:19:57;;;;;;;6.77;2.13;;;;;;;;;;5059087;28;20715;-70
2023/01/18 13:22:27;;;;;;;2.30;1.97;;;;;;;;;;5056930;28;20232;-72
2023/01/18 13:25:07;;;;;;;5.00;2.00;;;;;;;;;;5067382;28;20222;-71
2023/01/18 13:27:36;;;;;;;3.67;2.30;;;;;;;;;;5058225;28;20242;-72
2023/01/18 13:30:08;;;;;;;2.97;1.83;;;;;;;;;;5064040;28;20206;-71
2023/01/18 13:32:36;;;;;;;2.97;2.33;;;;;;;;;;5064021;28;20283;-71
2023/01/18 13:35:06;;;;;;;5.13;3.00;;;;;;;;;;5066824;28;20672;-71
2023/01/18 13:37:48;;;;;;;2.17;1.97;;;;;;;;;;5053671;28;20221;-71
2023/01/18 13:40:27;;;;;;;1.80;1.70;;;;;;;;;;5047329;28;20211;-71
2023/01/18 13:42:54;;;;;;;3.77;2.13;;;;;;;;;;5050064;28;20730;-70
2023/01/18 13:45:22;;;;;;;3.27;2.20;;;;;;;;;;5048144;28;20231;-71
2023/01/18 13:47:51;;;;;;;6.93;2.33;;;;;;;;;;5049455;28;20217;-70
2023/01/18 13:50:38;;;;;;;3.83;2.93;;;;;;;;;;5053843;28;20487;-73
2023/01/18 13:53:29;;;;;;;3.77;2.20;;;;;;;;;;5047597;28;20242;-71
2023/01/18 13:56:14;;;;;;;2.23;1.80;;;;;;;;;;5055197;28;20259;-71
2023/01/18 13:58:52;;;;;;;5.20;2.07;;;;;;;;;;5066871;28;20218;-72
2023/01/18 14:01:21;;;;;;;2.53;2.37;;;;;;;;;;5062321;28;20211;-71
2023/01/18 14:03:49;;;;;;;3.77;2.13;;;;;;;;;;5066251;28;20210;-72
2023/01/18 14:06:21;;;;;;;6.33;2.50;;;;;;;;;;5062265;28;20665;-72
2023/01/18 14:08:50;;;;;;;5.87;2.03;;;;;;;;;;5051540;28;20691;-72
2023/01/18 14:11:22;;;;;;;3.73;2.33;;;;;;;;;;5047904;28;20573;-72
2023/01/18 14:14:05;;;;;;;3.30;1.97;;;;;;;;;;5052732;28;20256;-73
2023/01/18 14:16:33;;;;;;;1.60;1.50;;;;;;;;;;5051031;28;20204;-73
2023/01/18 14:19:02;;;;;;;3.87;2.33;;;;;;;;;;5055559;28;20207;-72
2023/01/18 14:21:34;;;;;;;2.17;1.80;;;;;;;;;;5058598;28;20227;-72
2023/01/18 14:24:16;;;;;;;3.80;2.40;;;;;;;;;;5060006;28;20250;-72
2023/01/18 14:26:44;;;;;;;7.87;2.13;;;;;;;;;;5052762;28;20237;-70
2023/01/18 14:29:15;;;;;;;6.63;3.80;;;;;;;;;;5056401;28;20215;-82
2023/01/18 14:31:43;;;;;;;1.43;1.33;;;;;;;;;;5047840;28;20952;-72
2023/01/18 14:34:35;;;;;;;7.97;2.80;;;;;;;;;;5051850;28;20219;-72
2023/01/18 14:37:02;;;;;;;4.83;3.13;;;;;;;;;;5056004;28;20577;-71
2023/01/18 14:39:32;;;;;;;4.23;3.07;;;;;;;;;;5049929;28;20758;-72
2023/01/18 14:42:00;;;;;;;3.00;2.80;;;;;;;;;;5055667;28;20232;-71
2023/01/18 14:44:33;;;;;;;4.47;3.00;;;;;;;;;;5053041;28;20216;-71
2023/01/18 14:47:00;;;;;;;4.40;2.73;;;;;;;;;;5059277;28;20231;-71
2023/01/18 14:49:29;;;;;;;3.67;2.33;;;;;;;;;;5053834;28;20213;-70
2023/01/18 14:51:56;;;;;;;2.57;2.33;;;;;;;;;;5060029;28;20295;-71
2023/01/18 14:54:24;;;;;;;8.67;2.40;;;;;;;;;;5058649;28;20203;-71
2023/01/18 14:56:52;;;;;;;2.67;2.37;;;;;;;;;;5052125;28;20226;-71
2023/01/18 14:59:20;;;;;;;3.67;2.53;;;;;;;;;;5055568;28;20205;-71
2023/01/18 15:01:53;;;;;;;5.60;2.57;;;;;;;;;;5068057;28;20211;-71
2023/01/18 15:04:22;;;;;;;2.33;2.17;;;;;;;;;;5060125;28;20212;-71
2023/01/18 15:06:50;;;;;;;10.20;2.57;;;;;;;;;;5061336;28;20238;-74
2023/01/18 15:09:18;;;;;;;2.73;2.50;;;;;;;;;;5059114;28;20199;-72
2023/01/18 15:11:45;;;;;;;3.27;2.37;;;;;;;;;;5061317;28;20238;-72
2023/01/18 15:14:16;;;;;;;2.77;2.43;;;;;;;;;;5059681;28;20261;-71
2023/01/18 15:16:44;;;;;;;2.50;2.10;;;;;;;;;;5057674;28;20253;-71
2023/01/18 15:19:15;;;;;;;3.97;2.03;;;;;;;;;;5060321;28;20262;-71
2023/01/18 15:21:43;;;;;;;8.93;2.63;;;;;;;;;;5061094;28;20215;-70
2023/01/18 15:24:13;;;;;;;5.40;3.17;;;;;;;;;;5054102;28;20676;-71
2023/01/18 15:26:43;;;;;;;2.30;2.00;;;;;;;;;;5049864;28;20229;-71
2023/01/18 15:29:17;;;;;;;11.27;2.67;;;;;;;;;;5050256;28;20214;-71
2023/01/18 15:31:48;;;;;;;4.27;2.73;;;;;;;;;;5050818;28;20207;-70